Time;durP1;ratioP1;P1;durP2;ratioP2;P2;SDS_P1;SDS_P2;PMS_P1;PMS_P2;Temp;Humidity;BMP_temperature;BMP_pressure;BME280_temperature;BME280_humidity;BME280_pressure;Samples;Min_cycle;Max_cycle;Signal;HPM_P1;HPM_P2
2021/12/09 00:01:33;;;;;;;10.65;6.53;;;;;;;;;;5065581;28;20032;-33
2021/12/09 00:04:05;;;;;;;8.02;6.15;;;;;;;;;;5048350;28;20410;-30
2021/12/09 00:06:31;;;;;;;7.25;5.20;;;;;;;;;;5065970;28;20047;-29
2021/12/09 00:08:59;;;;;;;10.02;5.93;;;;;;;;;;5065688;28;20029;-30
2021/12/09 00:11:25;;;;;;;8.27;6.38;;;;;;;;;;5065625;28;20063;-30
2021/12/09 00:13:51;;;;;;;7.82;5.88;;;;;;;;;;5065584;28;20024;-31
2021/12/09 00:16:16;;;;;;;7.57;5.70;;;;;;;;;;5065413;28;20033;-32
2021/12/09 00:18:43;;;;;;;7.88;5.90;;;;;;;;;;5064635;28;20128;-28
2021/12/09 00:21:10;;;;;;;7.68;5.68;;;;;;;;;;5065829;28;20039;-34
2021/12/09 00:23:36;;;;;;;7.15;5.22;;;;;;;;;;5065575;28;20024;-30
2021/12/09 00:26:01;;;;;;;7.38;6.05;;;;;;;;;;5065020;28;20040;-30
2021/12/09 00:28:27;;;;;;;7.32;5.18;;;;;;;;;;5065007;28;20055;-29
2021/12/09 00:30:53;;;;;;;7.75;5.65;;;;;;;;;;5065396;28;20029;-30
2021/12/09 00:33:18;;;;;;;8.45;5.18;;;;;;;;;;5065355;28;20512;-32
2021/12/09 00:35:54;;;;;;;6.78;5.15;;;;;;;;;;5064966;28;20072;-32
2021/12/09 00:38:21;;;;;;;8.77;5.55;;;;;;;;;;5064783;28;20041;-32
2021/12/09 00:40:47;;;;;;;7.60;5.40;;;;;;;;;;5064742;28;20948;-32
2021/12/09 00:43:13;;;;;;;7.38;5.30;;;;;;;;;;5064708;28;20359;-31
2021/12/09 00:45:38;;;;;;;7.28;5.50;;;;;;;;;;5064811;28;20423;-32
2021/12/09 00:48:04;;;;;;;6.53;5.10;;;;;;;;;;5064813;28;20074;-32
2021/12/09 00:50:30;;;;;;;4.97;4.47;;;;;;;;;;5064987;28;20101;-33
2021/12/09 00:52:55;;;;;;;6.55;4.70;;;;;;;;;;5065083;28;20071;-33
2021/12/09 00:55:21;;;;;;;7.28;5.22;;;;;;;;;;5064090;28;20074;-31
2021/12/09 00:57:46;;;;;;;7.93;5.60;;;;;;;;;;5064762;28;20036;-30
2021/12/09 01:00:17;;;;;;;6.97;4.80;;;;;;;;;;5046397;28;20154;-30
2021/12/09 01:02:43;;;;;;;4.95;4.25;;;;;;;;;;5066693;28;20578;-30
2021/12/09 01:05:09;;;;;;;7.30;5.22;;;;;;;;;;5085013;28;20028;-32
2021/12/09 01:07:34;;;;;;;5.97;4.75;;;;;;;;;;5084832;28;20032;-28
2021/12/09 01:10:00;;;;;;;6.55;4.93;;;;;;;;;;5084320;28;20035;-32
2021/12/09 01:12:26;;;;;;;6.15;4.93;;;;;;;;;;5084293;28;20391;-35
2021/12/09 01:14:51;;;;;;;6.88;4.95;;;;;;;;;;5085388;28;20043;-33
2021/12/09 01:17:17;;;;;;;6.45;4.80;;;;;;;;;;5084437;28;20050;-30
2021/12/09 01:19:42;;;;;;;6.22;4.93;;;;;;;;;;5084399;28;20039;-31
2021/12/09 01:22:08;;;;;;;6.95;5.03;;;;;;;;;;5084379;28;20028;-32
2021/12/09 01:24:34;;;;;;;6.50;5.20;;;;;;;;;;5085058;28;20035;-30
2021/12/09 01:27:00;;;;;;;6.18;4.70;;;;;;;;;;5084529;28;20383;-35
2021/12/09 01:29:36;;;;;;;6.28;4.95;;;;;;;;;;5084685;28;20064;-33
2021/12/09 01:32:05;;;;;;;7.38;5.35;;;;;;;;;;5084375;28;20112;-32
2021/12/09 01:34:31;;;;;;;6.25;5.05;;;;;;;;;;5083700;28;20571;-31
2021/12/09 01:36:57;;;;;;;7.57;5.43;;;;;;;;;;5083527;28;20490;-31
2021/12/09 01:39:23;;;;;;;5.70;4.60;;;;;;;;;;5084015;28;20040;-31
2021/12/09 01:41:48;;;;;;;6.55;5.00;;;;;;;;;;5083818;28;20031;-34
2021/12/09 01:44:14;;;;;;;6.32;5.05;;;;;;;;;;5084309;28;20028;-30
2021/12/09 01:46:40;;;;;;;5.60;4.60;;;;;;;;;;5084088;28;20118;-32
2021/12/09 01:49:05;;;;;;;7.28;5.13;;;;;;;;;;5083880;28;20032;-32
2021/12/09 01:51:31;;;;;;;7.88;4.80;;;;;;;;;;5084277;28;20035;-31
2021/12/09 01:53:56;;;;;;;6.18;4.47;;;;;;;;;;5083744;28;20036;-33
2021/12/09 01:56:24;;;;;;;5.72;4.88;;;;;;;;;;5083864;28;20036;-30
2021/12/09 01:58:54;;;;;;;5.82;4.60;;;;;;;;;;5083270;28;20040;-31
2021/12/09 02:01:19;;;;;;;8.50;5.10;;;;;;;;;;5083892;28;20028;-31
2021/12/09 02:03:45;;;;;;;6.00;4.55;;;;;;;;;;5070804;28;20040;-30
2021/12/09 02:06:11;;;;;;;6.47;5.18;;;;;;;;;;5063739;28;20033;-35
2021/12/09 02:08:36;;;;;;;6.88;5.15;;;;;;;;;;5064193;28;20060;-32
2021/12/09 02:11:02;;;;;;;6.05;4.97;;;;;;;;;;5063837;28;20032;-30
2021/12/09 02:13:28;;;;;;;7.35;5.20;;;;;;;;;;5063491;28;20036;-32
2021/12/09 02:15:55;;;;;;;5.32;4.57;;;;;;;;;;5061878;28;20554;-31
2021/12/09 02:18:21;;;;;;;7.47;5.05;;;;;;;;;;5063173;28;20035;-33
2021/12/09 02:20:56;;;;;;;6.45;4.97;;;;;;;;;;5062867;28;20040;-31
2021/12/09 02:23:22;;;;;;;5.82;4.50;;;;;;;;;;5045670;28;20024;-32
2021/12/09 02:25:47;;;;;;;5.82;4.75;;;;;;;;;;5063177;28;20020;-31
2021/12/09 02:28:14;;;;;;;6.03;4.38;;;;;;;;;;5063030;28;20734;-31
2021/12/09 02:30:40;;;;;;;6.10;4.45;;;;;;;;;;5062901;28;20050;-29
2021/12/09 02:33:05;;;;;;;6.00;4.82;;;;;;;;;;5063087;28;20029;-31
2021/12/09 02:35:31;;;;;;;6.20;4.60;;;;;;;;;;5062675;28;20495;-31
2021/12/09 02:37:56;;;;;;;6.28;5.47;;;;;;;;;;5063003;28;20031;-29
2021/12/09 02:40:22;;;;;;;6.13;4.50;;;;;;;;;;5062919;28;20562;-32
2021/12/09 02:42:47;;;;;;;6.47;5.47;;;;;;;;;;5062674;28;20020;-33
2021/12/09 02:45:13;;;;;;;5.45;4.80;;;;;;;;;;5063218;28;20116;-31
2021/12/09 02:47:39;;;;;;;6.30;4.80;;;;;;;;;;5063103;28;20028;-30
2021/12/09 02:50:05;;;;;;;5.88;4.80;;;;;;;;;;5062739;28;20016;-30
2021/12/09 02:52:31;;;;;;;5.70;4.82;;;;;;;;;;5062732;28;20016;-33
2021/12/09 02:54:58;;;;;;;5.68;4.75;;;;;;;;;;5063156;28;20028;-34
2021/12/09 02:57:23;;;;;;;6.32;5.03;;;;;;;;;;5062658;28;20024;-35
2021/12/09 02:59:49;;;;;;;6.25;4.75;;;;;;;;;;5062383;28;20431;-30
2021/12/09 03:02:15;;;;;;;6.65;4.88;;;;;;;;;;5065757;28;20026;-36
2021/12/09 03:04:44;;;;;;;6.38;4.85;;;;;;;;;;5082447;28;20032;-32
2021/12/09 03:07:32;;;;;;;5.57;4.68;;;;;;;;;;5082484;28;20031;-32
2021/12/09 03:10:01;;;;;;;6.30;4.80;;;;;;;;;;5082054;28;20573;-31
2021/12/09 03:12:33;;;;;;;6.22;4.97;;;;;;;;;;5082630;28;20035;-35
2021/12/09 03:14:59;;;;;;;7.15;5.28;;;;;;;;;;5082623;28;20062;-32
2021/12/09 03:17:25;;;;;;;7.43;4.97;;;;;;;;;;5082712;28;20028;-34
2021/12/09 03:19:50;;;;;;;5.40;4.47;;;;;;;;;;5082430;28;20039;-28
2021/12/09 03:22:16;;;;;;;6.50;5.03;;;;;;;;;;5082708;28;20024;-30
2021/12/09 03:24:42;;;;;;;5.53;4.55;;;;;;;;;;5083167;28;20466;-32
2021/12/09 03:27:07;;;;;;;5.78;4.53;;;;;;;;;;5083214;28;20111;-32
2021/12/09 03:29:33;;;;;;;5.55;4.50;;;;;;;;;;5082772;28;20075;-29
2021/12/09 03:32:05;;;;;;;5.65;4.63;;;;;;;;;;5082493;28;20032;-35
2021/12/09 03:34:31;;;;;;;5.38;4.43;;;;;;;;;;5082275;28;20027;-34
2021/12/09 03:36:58;;;;;;;5.80;4.78;;;;;;;;;;5082536;28;20085;-32
2021/12/09 03:39:26;;;;;;;6.90;4.68;;;;;;;;;;5083005;28;20024;-31
2021/12/09 03:41:53;;;;;;;5.85;4.75;;;;;;;;;;5065087;28;20142;-30
2021/12/09 03:44:18;;;;;;;5.60;4.40;;;;;;;;;;5083036;28;20051;-31
2021/12/09 03:46:44;;;;;;;5.05;4.15;;;;;;;;;;5082453;28;20035;-32
2021/12/09 03:49:09;;;;;;;6.10;4.50;;;;;;;;;;5082460;28;20513;-34
2021/12/09 03:51:35;;;;;;;5.50;4.38;;;;;;;;;;5082372;28;20024;-29
2021/12/09 03:54:07;;;;;;;5.72;4.70;;;;;;;;;;5066863;28;20063;-34
2021/12/09 03:56:33;;;;;;;6.10;4.72;;;;;;;;;;5065751;28;20082;-30
2021/12/09 03:58:59;;;;;;;5.30;4.35;;;;;;;;;;5065569;28;20032;-34
2021/12/09 04:01:24;;;;;;;5.03;4.40;;;;;;;;;;5065824;28;20024;-32
2021/12/09 04:03:50;;;;;;;6.53;4.53;;;;;;;;;;5083354;28;20070;-30
2021/12/09 04:06:16;;;;;;;5.38;4.38;;;;;;;;;;5085797;28;20549;-29
2021/12/09 04:08:42;;;;;;;5.18;4.50;;;;;;;;;;5085854;28;20533;-32
2021/12/09 04:11:10;;;;;;;6.10;4.47;;;;;;;;;;5085489;28;20402;-31
2021/12/09 04:13:36;;;;;;;5.72;4.28;;;;;;;;;;5085609;28;20024;-29
2021/12/09 04:16:04;;;;;;;5.47;4.63;;;;;;;;;;5085507;28;20059;-30
2021/12/09 04:18:30;;;;;;;5.32;4.25;;;;;;;;;;5085915;28;20047;-30
2021/12/09 04:20:55;;;;;;;5.15;4.03;;;;;;;;;;5085112;28;20044;-32
2021/12/09 04:23:21;;;;;;;5.32;4.38;;;;;;;;;;5085535;28;20036;-29
2021/12/09 04:25:46;;;;;;;5.60;4.07;;;;;;;;;;5085704;28;20083;-29
2021/12/09 04:28:12;;;;;;;5.05;4.40;;;;;;;;;;5085268;28;20063;-30
2021/12/09 04:30:40;;;;;;;5.70;4.47;;;;;;;;;;5085798;28;20044;-34
2021/12/09 04:33:05;;;;;;;6.32;4.78;;;;;;;;;;5085543;28;20782;-31
2021/12/09 04:35:32;;;;;;;4.75;3.70;;;;;;;;;;5084706;28;20048;-34
2021/12/09 04:37:58;;;;;;;4.60;4.10;;;;;;;;;;5085247;28;20032;-29
2021/12/09 04:40:23;;;;;;;5.25;4.15;;;;;;;;;;5085744;28;20023;-32
2021/12/09 04:42:49;;;;;;;4.45;3.83;;;;;;;;;;5085523;28;20048;-32
2021/12/09 04:45:14;;;;;;;5.35;4.18;;;;;;;;;;5081879;28;20037;-29
2021/12/09 04:47:40;;;;;;;5.03;4.22;;;;;;;;;;5065545;28;20020;-33
2021/12/09 04:50:06;;;;;;;5.82;4.65;;;;;;;;;;5064992;28;20032;-31
2021/12/09 04:52:32;;;;;;;4.82;3.97;;;;;;;;;;5064357;28;20029;-32
2021/12/09 04:54:57;;;;;;;5.20;4.35;;;;;;;;;;5064336;28;20035;-30
2021/12/09 04:57:23;;;;;;;4.00;3.60;;;;;;;;;;5064992;28;20029;-32
2021/12/09 04:59:50;;;;;;;4.72;4.07;;;;;;;;;;5064844;28;20613;-30
2021/12/09 05:02:27;;;;;;;4.90;3.95;;;;;;;;;;5066336;28;20028;-31
2021/12/09 05:04:53;;;;;;;7.53;4.25;;;;;;;;;;5063803;28;20044;-29
2021/12/09 05:07:18;;;;;;;5.85;3.75;;;;;;;;;;5064629;28;20029;-31
2021/12/09 05:09:50;;;;;;;6.18;4.38;;;;;;;;;;5062860;28;20032;-30
2021/12/09 05:12:16;;;;;;;6.57;4.15;;;;;;;;;;5086215;28;20491;-31
2021/12/09 05:14:44;;;;;;;5.38;4.15;;;;;;;;;;5102961;28;20031;-28
2021/12/09 05:17:10;;;;;;;8.05;3.63;;;;;;;;;;5104795;28;20563;-32
2021/12/09 05:19:35;;;;;;;6.97;4.43;;;;;;;;;;5105054;28;20039;-30
2021/12/09 05:22:01;;;;;;;7.38;4.10;;;;;;;;;;5104612;28;20543;-28
2021/12/09 05:24:27;;;;;;;6.07;4.28;;;;;;;;;;5104789;28;20076;-35
2021/12/09 05:26:55;;;;;;;8.52;4.13;;;;;;;;;;5104889;28;20027;-31
2021/12/09 05:29:22;;;;;;;8.13;4.05;;;;;;;;;;5104690;28;20081;-30
2021/12/09 05:34:31;;;;;;;7.50;4.32;;;;;;;;;;5063884;28;20051;-29
2021/12/09 05:36:57;;;;;;;7.38;4.00;;;;;;;;;;5063791;28;20036;-33
2021/12/09 05:39:22;;;;;;;5.43;3.70;;;;;;;;;;5063794;28;20024;-32
2021/12/09 05:41:48;;;;;;;4.95;3.85;;;;;;;;;;5063799;28;20042;-31
2021/12/09 05:44:14;;;;;;;13.95;5.07;;;;;;;;;;5068525;28;20089;-32
2021/12/09 05:46:42;;;;;;;9.48;4.65;;;;;;;;;;5078258;28;20055;-29
2021/12/09 05:49:08;;;;;;;11.55;4.38;;;;;;;;;;5083997;28;20253;-32
2021/12/09 05:51:34;;;;;;;17.25;5.15;;;;;;;;;;5083612;28;20499;-33
2021/12/09 05:53:59;;;;;;;13.80;4.60;;;;;;;;;;5083857;28;20117;-29
2021/12/09 05:56:25;;;;;;;18.17;5.40;;;;;;;;;;5083391;28;20035;-28
2021/12/09 05:58:51;;;;;;;11.07;4.50;;;;;;;;;;5083245;28;20930;-33
2021/12/09 06:01:16;;;;;;;16.40;5.57;;;;;;;;;;5079272;28;20020;-29
2021/12/09 06:03:42;;;;;;;15.27;6.50;;;;;;;;;;5071534;28;20037;-33
2021/12/09 06:06:08;;;;;;;18.52;6.20;;;;;;;;;;5084776;28;20059;-29
2021/12/09 06:08:36;;;;;;;15.40;6.28;;;;;;;;;;5084532;28;20498;-29
2021/12/09 06:11:03;;;;;;;15.38;5.88;;;;;;;;;;5084246;28;20085;-29
2021/12/09 06:13:30;;;;;;;13.82;6.60;;;;;;;;;;5084380;28;20043;-32
2021/12/09 06:15:56;;;;;;;10.98;5.43;;;;;;;;;;5084958;28;20115;-31
2021/12/09 06:18:21;;;;;;;10.82;5.45;;;;;;;;;;5084236;28;20766;-34
2021/12/09 06:20:47;;;;;;;10.85;5.05;;;;;;;;;;5084090;28;20049;-37
2021/12/09 06:23:12;;;;;;;9.43;5.57;;;;;;;;;;5084387;28;20101;-32
2021/12/09 06:25:38;;;;;;;10.90;5.57;;;;;;;;;;5083827;28;20032;-31
2021/12/09 06:28:04;;;;;;;8.70;5.78;;;;;;;;;;5082757;28;20570;-28
2021/12/09 06:30:29;;;;;;;12.82;5.97;;;;;;;;;;5083221;28;20028;-33
2021/12/09 06:32:55;;;;;;;10.20;5.50;;;;;;;;;;5083190;28;20051;-30
2021/12/09 06:35:20;;;;;;;10.48;5.68;;;;;;;;;;5083071;28;20024;-33
2021/12/09 06:37:48;;;;;;;7.40;4.90;;;;;;;;;;5082861;28;20024;-35
2021/12/09 06:40:18;;;;;;;8.02;5.15;;;;;;;;;;5084396;28;20031;-32
2021/12/09 06:42:43;;;;;;;11.75;5.28;;;;;;;;;;5085269;28;20027;-29
2021/12/09 06:45:10;;;;;;;9.88;5.35;;;;;;;;;;5085541;28;20024;-28
2021/12/09 06:47:35;;;;;;;8.13;5.65;;;;;;;;;;5085335;28;20443;-30
2021/12/09 06:50:01;;;;;;;8.18;5.18;;;;;;;;;;5085072;28;20050;-31
2021/12/09 06:52:27;;;;;;;9.35;5.43;;;;;;;;;;5085019;28;20012;-31
2021/12/09 06:54:52;;;;;;;8.35;5.30;;;;;;;;;;5084359;28;20024;-29
2021/12/09 06:57:18;;;;;;;6.88;5.13;;;;;;;;;;5085544;28;20024;-29
2021/12/09 06:59:43;;;;;;;7.38;5.38;;;;;;;;;;5085307;28;20700;-31
2021/12/09 07:02:09;;;;;;;10.73;5.28;;;;;;;;;;5075729;28;20090;-32
2021/12/09 07:04:34;;;;;;;8.13;5.68;;;;;;;;;;5064835;28;20107;-33
2021/12/09 07:07:00;;;;;;;7.18;5.35;;;;;;;;;;5065045;28;20033;-28
2021/12/09 07:09:28;;;;;;;6.22;4.82;;;;;;;;;;5064730;28;20085;-31
2021/12/09 07:11:55;;;;;;;10.43;5.47;;;;;;;;;;5064358;28;20052;-29
2021/12/09 07:14:20;;;;;;;7.50;5.28;;;;;;;;;;5064760;28;20220;-30
2021/12/09 07:16:46;;;;;;;8.77;5.28;;;;;;;;;;5064875;28;20426;-30
2021/12/09 07:19:11;;;;;;;8.18;5.22;;;;;;;;;;5064519;28;20651;-28
2021/12/09 07:21:37;;;;;;;12.70;6.07;;;;;;;;;;5065183;28;20514;-28
2021/12/09 07:24:03;;;;;;;7.85;5.78;;;;;;;;;;5064375;28;20659;-29
2021/12/09 07:26:30;;;;;;;9.38;5.65;;;;;;;;;;5064445;28;20097;-31
2021/12/09 07:28:56;;;;;;;11.07;6.22;;;;;;;;;;5067140;28;20427;-28
2021/12/09 07:31:24;;;;;;;11.38;6.03;;;;;;;;;;5068914;28;20050;-35
2021/12/09 07:33:50;;;;;;;8.55;6.32;;;;;;;;;;5068481;28;20033;-32
2021/12/09 07:36:15;;;;;;;11.73;6.53;;;;;;;;;;5068706;28;20050;-33
2021/12/09 07:38:41;;;;;;;10.23;6.15;;;;;;;;;;5068139;28;20021;-32
2021/12/09 07:41:07;;;;;;;10.85;6.70;;;;;;;;;;5067718;28;20037;-28
2021/12/09 07:43:33;;;;;;;9.88;6.20;;;;;;;;;;5068580;28;20029;-36
2021/12/09 07:45:59;;;;;;;13.57;6.97;;;;;;;;;;5088203;28;20142;-31
2021/12/09 07:48:25;;;;;;;13.02;7.93;;;;;;;;;;5088534;28;20058;-36
2021/12/09 07:50:50;;;;;;;10.98;7.55;;;;;;;;;;5088148;28;20119;-30
2021/12/09 07:53:17;;;;;;;11.93;7.38;;;;;;;;;;5087882;28;20028;-31
2021/12/09 07:55:44;;;;;;;9.48;6.78;;;;;;;;;;5088658;28;20033;-31
2021/12/09 07:58:11;;;;;;;11.35;7.07;;;;;;;;;;5088313;28;20039;-33
2021/12/09 08:00:37;;;;;;;10.13;6.47;;;;;;;;;;5068222;28;20063;-36
2021/12/09 08:03:02;;;;;;;11.80;6.93;;;;;;;;;;5086030;28;20031;-29
2021/12/09 08:05:29;;;;;;;15.18;7.20;;;;;;;;;;5088303;28;20039;-33
2021/12/09 08:07:55;;;;;;;9.73;6.63;;;;;;;;;;5087313;28;20024;-32
2021/12/09 08:10:22;;;;;;;10.43;6.10;;;;;;;;;;5088570;28;20031;-29
2021/12/09 08:12:48;;;;;;;10.35;6.85;;;;;;;;;;5087526;28;20057;-31
2021/12/09 08:15:14;;;;;;;8.07;6.53;;;;;;;;;;5087885;28;20106;-33
2021/12/09 08:20:12;;;;;;;10.50;6.20;;;;;;;;;;5087825;28;20123;-32
2021/12/09 08:22:38;;;;;;;9.13;6.38;;;;;;;;;;5087788;28;20620;-32
2021/12/09 08:25:06;;;;;;;9.60;6.35;;;;;;;;;;5087773;28;20036;-29
2021/12/09 08:27:32;;;;;;;11.95;7.15;;;;;;;;;;5088177;28;20082;-30
2021/12/09 08:30:01;;;;;;;9.52;6.43;;;;;;;;;;5083536;28;20044;-28
2021/12/09 08:32:26;;;;;;;9.82;6.53;;;;;;;;;;5084251;28;20508;-33
2021/12/09 08:34:53;;;;;;;13.02;8.50;;;;;;;;;;5085168;28;20036;-31
2021/12/09 08:37:19;;;;;;;11.07;7.50;;;;;;;;;;5084704;28;20024;-27
2021/12/09 08:39:45;;;;;;;11.23;7.03;;;;;;;;;;5086273;28;20080;-29
2021/12/09 08:42:10;;;;;;;9.95;7.15;;;;;;;;;;5084681;28;20020;-30
2021/12/09 08:44:36;;;;;;;12.02;7.57;;;;;;;;;;5086123;28;20027;-32
2021/12/09 08:47:02;;;;;;;14.10;7.78;;;;;;;;;;5086497;28;20028;-30
2021/12/09 08:49:27;;;;;;;9.90;7.28;;;;;;;;;;5086492;28;20099;-30
2021/12/09 08:51:53;;;;;;;13.20;7.97;;;;;;;;;;5085637;28;20520;-30
2021/12/09 08:54:19;;;;;;;10.52;7.50;;;;;;;;;;5085900;28;20055;-30
2021/12/09 08:56:50;;;;;;;12.43;7.60;;;;;;;;;;5085670;28;20059;-29
2021/12/09 08:59:16;;;;;;;10.45;7.18;;;;;;;;;;5084111;28;20085;-30
2021/12/09 09:01:42;;;;;;;11.48;7.50;;;;;;;;;;5087103;28;20455;-30
2021/12/09 09:04:07;;;;;;;12.05;7.00;;;;;;;;;;5083153;28;20027;-31
2021/12/09 09:06:33;;;;;;;10.20;7.05;;;;;;;;;;5085982;28;20028;-29
2021/12/09 09:08:59;;;;;;;11.68;7.38;;;;;;;;;;5068760;28;20028;-30
2021/12/09 09:11:25;;;;;;;10.20;6.72;;;;;;;;;;5072739;28;20036;-31
2021/12/09 09:13:51;;;;;;;14.43;7.30;;;;;;;;;;5083834;28;20475;-31
2021/12/09 09:16:16;;;;;;;9.38;7.18;;;;;;;;;;5088725;28;20497;-32
2021/12/09 09:18:42;;;;;;;12.50;7.50;;;;;;;;;;5085781;28;20069;-32
2021/12/09 09:21:07;;;;;;;12.07;7.43;;;;;;;;;;5088667;28;20012;-30
2021/12/09 09:23:33;;;;;;;11.65;7.07;;;;;;;;;;5077101;28;20173;-32
2021/12/09 09:25:58;;;;;;;11.18;6.60;;;;;;;;;;5076000;28;20430;-32
2021/12/09 09:28:24;;;;;;;8.38;6.15;;;;;;;;;;5073413;28;20073;-30
2021/12/09 09:30:53;;;;;;;8.38;6.47;;;;;;;;;;5075584;28;20490;-30
2021/12/09 09:33:20;;;;;;;13.70;6.72;;;;;;;;;;5085718;28;20024;-28
2021/12/09 09:35:46;;;;;;;9.98;6.53;;;;;;;;;;5083450;28;20107;-31
2021/12/09 09:38:12;;;;;;;10.38;6.47;;;;;;;;;;5082696;28;20031;-29
2021/12/09 09:41:08;;;;;;;12.15;6.53;;;;;;;;;;5085107;28;20549;-32
2021/12/09 09:46:17;;;;;;;9.93;6.20;;;;;;;;;;5076991;28;20028;-33
2021/12/09 09:48:43;;;;;;;11.70;6.07;;;;;;;;;;5083115;28;20043;-29
2021/12/09 09:51:09;;;;;;;11.23;6.20;;;;;;;;;;5080093;28;20147;-32
2021/12/09 09:53:35;;;;;;;12.77;6.70;;;;;;;;;;5080296;28;20077;-28
2021/12/09 09:56:01;;;;;;;15.68;7.00;;;;;;;;;;5076460;28;20962;-31
2021/12/09 09:58:27;;;;;;;11.98;6.05;;;;;;;;;;5090969;28;20007;-32
2021/12/09 10:00:55;;;;;;;10.32;5.93;;;;;;;;;;5078522;28;20093;-30
2021/12/09 10:07:30;;;;;;;14.00;6.47;;;;;;;;;;5082974;28;20421;-29
2021/12/09 10:09:56;;;;;;;9.43;6.03;;;;;;;;;;5066440;28;20109;-30
2021/12/09 10:12:21;;;;;;;10.10;5.78;;;;;;;;;;5065439;28;20692;-28
2021/12/09 10:14:50;;;;;;;9.18;6.30;;;;;;;;;;5084896;28;20115;-29
2021/12/09 10:17:17;;;;;;;16.38;6.32;;;;;;;;;;5083904;28;20424;-29
2021/12/09 10:19:46;;;;;;;12.85;5.63;;;;;;;;;;5078264;28;20030;-32
2021/12/09 10:22:16;;;;;;;12.40;6.50;;;;;;;;;;5084286;28;20059;-29
2021/12/09 10:24:42;;;;;;;9.23;5.63;;;;;;;;;;5084867;28;20028;-29
2021/12/09 10:27:08;;;;;;;10.57;5.72;;;;;;;;;;5084498;28;20020;-28
2021/12/09 10:29:42;;;;;;;11.82;5.50;;;;;;;;;;5084952;28;20047;-28
2021/12/09 10:32:11;;;;;;;12.73;5.72;;;;;;;;;;5085137;28;20028;-30
2021/12/09 10:34:41;;;;;;;8.23;5.80;;;;;;;;;;5084619;28;20031;-30
2021/12/09 10:37:20;;;;;;;9.30;5.15;;;;;;;;;;5085191;28;20028;-30
2021/12/09 10:39:48;;;;;;;8.50;5.07;;;;;;;;;;5085721;28;20024;-30
2021/12/09 10:42:16;;;;;;;10.48;5.55;;;;;;;;;;5085239;28;20032;-29
2021/12/09 10:44:48;;;;;;;8.95;5.38;;;;;;;;;;5085149;28;20028;-32
2021/12/09 10:47:22;;;;;;;9.85;4.88;;;;;;;;;;5065749;28;20151;-28
2021/12/09 10:50:06;;;;;;;7.53;5.10;;;;;;;;;;5065281;28;20028;-32
2021/12/09 10:52:41;;;;;;;7.97;5.38;;;;;;;;;;5064995;28;20526;-34
2021/12/09 10:55:29;;;;;;;7.22;4.80;;;;;;;;;;5064811;28;20036;-34
2021/12/09 10:57:59;;;;;;;10.57;5.03;;;;;;;;;;5064965;28;20459;-34
2021/12/09 11:00:28;;;;;;;7.00;4.80;;;;;;;;;;5065946;28;20538;-31
2021/12/09 11:03:04;;;;;;;7.80;4.88;;;;;;;;;;5064422;28;20050;-30
2021/12/09 11:05:30;;;;;;;6.60;4.70;;;;;;;;;;5064914;28;20034;-32
2021/12/09 11:08:11;;;;;;;8.90;5.25;;;;;;;;;;5064609;28;20024;-29
2021/12/09 11:10:45;;;;;;;9.68;5.05;;;;;;;;;;5064876;28;20031;-32
2021/12/09 11:13:10;;;;;;;9.50;4.35;;;;;;;;;;5064553;28;20426;-31
2021/12/09 11:15:53;;;;;;;7.43;4.57;;;;;;;;;;5064683;28;20032;-31
2021/12/09 11:18:42;;;;;;;5.63;4.70;;;;;;;;;;5064754;28;20460;-34
2021/12/09 11:21:24;;;;;;;6.95;4.70;;;;;;;;;;5064505;28;20032;-31
2021/12/09 11:23:59;;;;;;;5.90;3.97;;;;;;;;;;5064955;28;20428;-33
2021/12/09 11:29:20;;;;;;;7.85;4.40;;;;;;;;;;5055824;28;20072;-31
2021/12/09 11:32:40;;;;;;;7.32;4.68;;;;;;;;;;5064688;28;20093;-31
2021/12/09 11:37:46;;;;;;;6.40;4.80;;;;;;;;;;5064742;28;20388;-29
2021/12/09 11:40:36;;;;;;;6.88;4.85;;;;;;;;;;5063073;28;20031;-30
2021/12/09 11:43:02;;;;;;;6.75;4.32;;;;;;;;;;5047689;28;20924;-29
2021/12/09 11:45:32;;;;;;;6.95;5.03;;;;;;;;;;5064470;28;20090;-29
2021/12/09 11:47:58;;;;;;;8.02;4.35;;;;;;;;;;5064677;28;20024;-30
2021/12/09 11:50:26;;;;;;;7.22;4.88;;;;;;;;;;5064509;28;20254;-30
2021/12/09 11:52:53;;;;;;;6.47;5.10;;;;;;;;;;5064028;28;20032;-30
2021/12/09 11:55:21;;;;;;;6.30;4.20;;;;;;;;;;5064535;28;20410;-29
2021/12/09 11:57:55;;;;;;;6.63;4.50;;;;;;;;;;5064214;28;20040;-31
2021/12/09 12:12:24;;;;;;;6.25;4.55;;;;;;;;;;5084542;28;20026;-30
2021/12/09 12:14:53;;;;;;;6.53;4.45;;;;;;;;;;5085060;28;20044;-29
2021/12/09 12:20:07;;;;;;;5.82;4.30;;;;;;;;;;5075396;28;20028;-29
2021/12/09 12:28:23;;;;;;;6.95;4.57;;;;;;;;;;5067420;28;20127;-32
2021/12/09 12:39:45;;;;;;;6.78;4.55;;;;;;;;;;5067263;28;20024;-31
2021/12/09 12:42:42;;;;;;;6.30;4.85;;;;;;;;;;5067164;28;20127;-29
2021/12/09 12:51:28;;;;;;;6.43;4.05;;;;;;;;;;5025813;28;20055;-28
2021/12/09 12:54:23;;;;;;;5.45;4.45;;;;;;;;;;5049131;28;20036;-33
2021/12/09 12:56:55;;;;;;;9.15;4.78;;;;;;;;;;5067113;28;20037;-32
2021/12/09 12:59:29;;;;;;;5.65;4.40;;;;;;;;;;5067281;28;20108;-30
2021/12/09 13:02:07;;;;;;;4.68;4.05;;;;;;;;;;5086192;28;20024;-31
2021/12/09 13:07:44;;;;;;;5.72;4.72;;;;;;;;;;5087289;28;20027;-32
2021/12/09 13:10:23;;;;;;;4.55;3.90;;;;;;;;;;5087089;28;20035;-31
2021/12/09 13:13:04;;;;;;;5.25;4.30;;;;;;;;;;5086746;28;20036;-33
2021/12/09 13:15:38;;;;;;;6.57;4.28;;;;;;;;;;5070330;28;20409;-32
2021/12/09 13:18:07;;;;;;;6.15;4.30;;;;;;;;;;5086732;28;20116;-30
2021/12/09 13:20:36;;;;;;;4.47;3.80;;;;;;;;;;5087192;28;20036;-29
2021/12/09 13:23:14;;;;;;;4.75;3.67;;;;;;;;;;5086167;28;20112;-29
2021/12/09 13:26:10;;;;;;;5.82;3.97;;;;;;;;;;5086774;28;20065;-30
2021/12/09 13:28:38;;;;;;;4.78;3.88;;;;;;;;;;5071627;28;20047;-31
2021/12/09 13:31:12;;;;;;;5.07;4.05;;;;;;;;;;5086536;28;20141;-32
2021/12/09 13:36:18;;;;;;;5.38;3.75;;;;;;;;;;5086764;28;20046;-28
2021/12/09 13:49:49;;;;;;;4.85;3.53;;;;;;;;;;5086295;28;20024;-29
2021/12/09 13:55:14;;;;;;;4.72;3.65;;;;;;;;;;5086375;28;20047;-31
2021/12/09 13:57:44;;;;;;;4.05;3.45;;;;;;;;;;5086095;28;20497;-31
2021/12/09 14:00:40;;;;;;;4.75;3.42;;;;;;;;;;5085116;28;20032;-30
2021/12/09 14:03:14;;;;;;;4.38;3.58;;;;;;;;;;5079054;28;20040;-32
2021/12/09 14:06:00;;;;;;;4.13;3.53;;;;;;;;;;5086151;28;20502;-31
2021/12/09 14:08:58;;;;;;;5.43;3.75;;;;;;;;;;5085878;28;20169;-31
2021/12/09 14:11:29;;;;;;;3.47;3.17;;;;;;;;;;5040804;28;20032;-30
2021/12/09 14:14:17;;;;;;;3.75;3.00;;;;;;;;;;5085664;28;20020;-29
2021/12/09 14:16:54;;;;;;;4.35;3.28;;;;;;;;;;5081377;28;20032;-31
2021/12/09 14:21:46;;;;;;;3.83;3.17;;;;;;;;;;5065508;28;20098;-28
2021/12/09 14:24:19;;;;;;;4.90;3.47;;;;;;;;;;5065253;28;20468;-29
2021/12/09 14:26:51;;;;;;;;;;;;;;;;;;5048169;28;20032;-27
2021/12/09 14:29:17;;;;;;;5.60;3.90;;;;;;;;;;5065102;28;19920;-29
2021/12/09 14:31:45;;;;;;;4.07;3.40;;;;;;;;;;5065571;28;20082;-29
2021/12/09 14:34:11;;;;;;;4.50;3.70;;;;;;;;;;5065240;28;20490;-32
2021/12/09 14:36:36;;;;;;;4.43;3.58;;;;;;;;;;5065052;28;20035;-28
2021/12/09 14:39:07;;;;;;;4.13;3.70;;;;;;;;;;5063378;28;20028;-28
2021/12/09 14:41:34;;;;;;;4.68;3.80;;;;;;;;;;5065461;28;20095;-35
2021/12/09 14:43:59;;;;;;;5.10;3.97;;;;;;;;;;5065267;28;20412;-29
2021/12/09 14:46:27;;;;;;;4.03;3.40;;;;;;;;;;5047617;28;20017;-29
2021/12/09 14:48:53;;;;;;;4.35;3.75;;;;;;;;;;5064883;28;20028;-34
2021/12/09 14:51:26;;;;;;;4.72;3.65;;;;;;;;;;5065066;28;20119;-33
2021/12/09 14:53:52;;;;;;;;;;;;;;;;;;5065664;28;20056;-33
2021/12/09 14:56:37;;;;;;;4.20;3.58;;;;;;;;;;5065049;28;20389;-31
2021/12/09 14:59:20;;;;;;;4.00;3.60;;;;;;;;;;5065154;28;20448;-29
2021/12/09 15:02:13;;;;;;;5.38;4.25;;;;;;;;;;5085193;28;20111;-29
2021/12/09 15:04:44;;;;;;;4.75;3.88;;;;;;;;;;5071185;28;20410;-33
2021/12/09 15:10:05;;;;;;;4.85;4.15;;;;;;;;;;5084981;28;20107;-29
2021/12/09 15:12:32;;;;;;;5.80;4.18;;;;;;;;;;5085328;28;20028;-29
2021/12/09 15:15:01;;;;;;;4.68;3.78;;;;;;;;;;5066871;28;20027;-29
2021/12/09 15:17:26;;;;;;;4.60;3.78;;;;;;;;;;5079529;28;20114;-31
2021/12/09 15:20:06;;;;;;;5.32;4.50;;;;;;;;;;5064865;28;20539;-30
2021/12/09 15:22:55;;;;;;;5.10;4.60;;;;;;;;;;5064723;28;20633;-28
2021/12/09 15:25:21;;;;;;;4.28;3.72;;;;;;;;;;5065032;28;20028;-28
2021/12/09 15:27:48;;;;;;;4.93;4.28;;;;;;;;;;5064439;28;20487;-29
2021/12/09 15:30:14;;;;;;;5.75;4.90;;;;;;;;;;5064676;28;20111;-34
2021/12/09 15:33:00;;;;;;;5.50;4.03;;;;;;;;;;5064558;28;20024;-29
2021/12/09 15:35:26;;;;;;;6.63;4.40;;;;;;;;;;5064012;28;20036;-33
2021/12/09 15:37:52;;;;;;;5.20;4.10;;;;;;;;;;5064672;28;20058;-36
2021/12/09 15:40:20;;;;;;;5.30;4.35;;;;;;;;;;5064366;28;20028;-32
2021/12/09 15:42:46;;;;;;;5.63;4.50;;;;;;;;;;5064471;28;20512;-29
2021/12/09 15:45:11;;;;;;;5.47;4.80;;;;;;;;;;5064477;28;20024;-30
2021/12/09 15:47:37;;;;;;;5.40;4.53;;;;;;;;;;5064546;28;20070;-28
2021/12/09 15:50:10;;;;;;;6.03;4.72;;;;;;;;;;5070571;28;20028;-34
2021/12/09 15:52:50;;;;;;;7.63;5.47;;;;;;;;;;5088144;28;20108;-31
2021/12/09 15:55:47;;;;;;;5.65;4.55;;;;;;;;;;5068209;28;20043;-29
2021/12/09 15:58:13;;;;;;;6.68;5.10;;;;;;;;;;5048844;28;20076;-32
2021/12/09 16:00:39;;;;;;;6.65;5.30;;;;;;;;;;5080768;28;20601;-28
2021/12/09 16:03:05;;;;;;;6.65;5.50;;;;;;;;;;5088026;28;20500;-30
2021/12/09 16:05:31;;;;;;;9.05;5.50;;;;;;;;;;5086938;28;20024;-28
2021/12/09 16:07:58;;;;;;;43.22;24.10;;;;;;;;;;5088081;28;20032;-31